Data for 11/01/2008

Time Sea-Level Adjusted Pressure Absolute Pressure Temperature Relative Humidity Dew Point   
(mb) (inHg) (mb) (inHg) (C) (F) (%) (C) (F)
00:05 1024 30.24 854 25.22 11.4 52.4 48 0.9 33.6
00:10 1024 30.24 854 25.22 11.2 52.1 50 1.1 34
00:15 1024 30.24 853 25.19 10.5 50.8 52 1 33.8
00:20 1024 30.24 853 25.19 10.4 50.7 51 0.7 33.2
00:25 1024 30.24 853 25.19 10.7 51.3 49 0.6 33.1
00:30 1024 30.24 853 25.19 10.9 51.5 49 0.7 33.3
00:35 1024 30.24 853 25.19 10.7 51.3 50 0.8 33.4
00:40 1024 30.24 853 25.19 11 51.7 48 0.4 32.7
00:45 1024 30.24 853 25.19 10.8 51.5 50 0.7 33.3
00:50 1024 30.24 853 25.19 10.5 50.9 51 0.8 33.4
00:55 1024 30.24 854 25.22 10.3 50.5 50 0.5 32.8
01:00 1024 30.24 854 25.22 10.6 51.1 50 0.6 33.1
01:05 1024 30.24 854 25.22 10.8 51.5 49 0.6 33.1
01:10 1024 30.24 854 25.22 11.2 52.1 49 0.8 33.4
01:15 1024 30.24 854 25.22 10.8 51.4 50 0.8 33.5
01:20 1024 30.24 854 25.22 10.8 51.4 50 0.8 33.5
01:25 1024 30.24 854 25.22 10.7 51.3 50 0.9 33.6
01:30 1024 30.24 854 25.22 10.7 51.2 51 1 33.7
01:35 1024 30.24 854 25.22 10.6 51.1 51 0.9 33.6
01:40 1024 30.24 854 25.22 10.5 50.9 51 1 33.7
01:45 1024 30.24 854 25.22 10.1 50.3 53 1.1 33.9
01:50 1024 30.24 854 25.22 10.1 50.1 52 0.7 33.2
01:55 1024 30.24 854 25.22 10.4 50.7 51 0.7 33.3
02:00 1024 30.24 854 25.22 10.6 51.1 50 0.7 33.3
02:05 1024 30.24 854 25.22 10.7 51.3 51 1 33.9
02:10 1024 30.24 854 25.22 10.3 50.6 53 1.1 34
02:15 1024 30.24 854 25.22 10 50 53 1 33.8
02:20 1024 30.24 854 25.22 9.8 49.7 53 0.8 33.5
02:25 1024 30.24 854 25.22 9.9 49.8 54 1.1 34
02:30 1024 30.24 853 25.19 9.7 49.5 53 0.8 33.4
02:35 1024 30.24 853 25.19 10 49.9 52 0.7 33.2
02:40 1024 30.24 854 25.22 10.1 50.1 52 0.8 33.4
02:45 1024 30.24 854 25.22 10.2 50.4 52 0.9 33.6
02:50 1024 30.24 853 25.19 10.1 50.2 52 0.8 33.5
02:55 1024 30.24 853 25.19 10.2 50.4 51 0.7 33.2
03:00 1024 30.24 853 25.19 10.4 50.6 52 1 33.8
03:05 1024 30.24 853 25.19 10.3 50.5 52 0.9 33.6
03:10 1024 30.24 853 25.19 10 50 54 1.3 34.3
03:15 1024 30.24 853 25.19 9.6 49.2 54 0.9 33.5
03:20 1024 30.24 853 25.19 9.4 48.8 57 1.2 34.2
03:25 1024 30.24 853 25.19 9 48.2 57 1.1 33.9
03:30 1024 30.24 853 25.19 8.9 48 58 1.1 33.9
03:35 1024 30.24 853 25.19 8.7 47.7 58 0.9 33.7
03:40 1024 30.24 853 25.19 9.1 48.3 56 0.7 33.3
03:45 1024 30.24 853 25.19 9.3 48.8 57 1.4 34.5
03:50 1024 30.24 853 25.19 8.7 47.6 58 0.8 33.5
03:55 1024 30.24 853 25.19 8.7 47.7 59 1.1 33.9
04:00 1024 30.24 853 25.19 8.4 47.1 59 0.9 33.6
04:05 1024 30.24 853 25.19 8.4 47 58 0.7 33.2
04:10 1024 30.24 853 25.19 8.3 47 60 1 33.8
04:15 1024 30.24 853 25.19 8.2 46.7 59 0.6 33.1
04:20 1024 30.24 853 25.19 8.3 46.9 59 0.8 33.5
04:25 1024 30.24 853 25.19 8.1 46.6 59 0.5 32.9
04:30 1024 30.24 853 25.19 8.4 47.1 58 0.6 33
04:35 1024 30.24 853 25.19 8.2 46.8 59 0.7 33.3
04:40 1024 30.24 853 25.19 8.2 46.7 58 0.4 32.7
04:45 1024 30.24 853 25.19 8.2 46.8 58 0.6 33
04:50 1024 30.24 853 25.19 8.2 46.7 58 0.5 33
04:55 1024 30.24 853 25.19 8.5 47.2 56 0.3 32.6
05:00 1024 30.24 853 25.19 8.8 47.9 56 0.6 33
05:05 1024 30.24 853 25.19 8.1 46.7 61 1.1 33.9
05:10 1024 30.24 853 25.19 7.4 45.2 61 0.4 32.8
05:15 1024 30.24 853 25.19 7.1 44.7 61 0.2 32.3
05:20 1024 30.24 853 25.19 7.2 45 61 0.3 32.5
05:25 1024 30.24 853 25.19 7.9 46.1 59 0.3 32.5
05:30 1024 30.24 853 25.19 7.1 44.9 63 0.6 33
05:35 1024 30.24 853 25.19 7.7 45.8 62 0.8 33.5
05:40 1024 30.24 853 25.19 6.8 44.2 64 0.4 32.7
05:45 1024 30.24 853 25.19 6.9 44.5 62 0.2 32.3
05:50 1024 30.24 853 25.19 7.6 45.6 60 0.4 32.7
05:55 1024 30.24 853 25.19 7.7 45.8 59 0.2 32.4
06:00 1024 30.24 854 25.22 7.9 46.3 60 0.6 33.1
06:05 1024 30.24 854 25.22 7.6 45.7 61 0.6 33
06:10 1024 30.24 854 25.22 7.5 45.4 61 0.4 32.6
06:15 1024 30.24 854 25.22 7.6 45.7 60 0.4 32.6
06:20 1024 30.24 854 25.22 8.1 46.6 59 0.6 33.1
06:25 1024 30.24 854 25.22 8 46.5 58 0.4 32.7
06:30 1024 30.24 853 25.19 8.2 46.7 59 0.6 33
06:35 1024 30.24 853 25.19 7.8 46.1 60 0.6 33.1
06:40 1024 30.24 853 25.19 7.4 45.2 63 0.7 33.2
06:45 1024 30.24 853 25.19 7.2 45 61 0.3 32.5
06:50 1024 30.24 853 25.19 7.2 44.9 62 0.4 32.7
06:55 1024 30.24 853 25.19 6.8 44.2 65 0.6 33.1
07:00 1024 30.24 853 25.19 6.5 43.8 65 0.4 32.6
07:05 1024 30.24 853 25.19 6.7 44.1 64 0.3 32.6
07:10 1024 30.24 853 25.19 7.1 44.8 62 0.4 32.8
07:15 1024 30.24 853 25.19 7 44.6 64 0.7 33.3
07:20 1024 30.24 853 25.19 6.3 43.3 66 0.3 32.6
07:25 1024 30.24 853 25.19 6.3 43.3 66 0.4 32.7
07:30 1024 30.24 853 25.19 6.7 44.1 63 0.2 32.3
07:35 1024 30.24 853 25.19 6.9 44.4 62 0.2 32.4
07:40 1024 30.24 853 25.19 7 44.6 63 0.5 32.9
07:45 1024 30.24 853 25.19 7.7 45.8 61 0.6 33.1
07:50 1024 30.24 853 25.19 7.2 45 63 0.6 33.2
07:55 1024 30.24 853 25.19 7.5 45.5 60 0.2 32.4
08:00 1024 30.24 853 25.19 7.7 45.8 60 0.5 32.9
08:05 1024 30.24 853 25.19 7.8 46 59 0.4 32.7
08:10 1024 30.24 853 25.19 7.9 46.1 60 0.6 33
08:15 1024 30.24 853 25.19 7.4 45.3 62 0.7 33.2
08:20 1024 30.24 853 25.19 7.3 45.1 61 0.4 32.7
08:25 1024 30.24 853 25.19 7.1 44.7 63 0.5 32.9
08:30 1024 30.24 853 25.19 6.6 43.9 64 0.4 32.7
08:35 1024 30.24 853 25.19 6.6 43.9 63 0.2 32.3
08:40 1024 30.24 853 25.19 6.8 44.3 62 0.1 32.3
08:45 1024 30.24 853 25.19 7.5 45.4 59 0.1 32.2
08:50 1024 30.24 853 25.19 7.8 46.1 60 0.5 32.9
08:55 1024 30.24 853 25.19 7.7 45.9 60 0.4 32.8
09:00 1024 30.24 853 25.19 7.8 46 60 0.4 32.8
09:05 1024 30.24 853 25.19 8 46.3 59 0.4 32.8
09:10 1024 30.24 853 25.19 8 46.4 59 0.5 32.9
09:15 1024 30.24 853 25.19 8.2 46.8 58 0.5 32.9
09:20 1024 30.24 853 25.19 8.6 47.5 56 0.5 32.8
09:25 1024 30.24 853 25.19 9.2 48.6 55 0.6 33
09:30 1024 30.24 853 25.19 9.6 49.2 53 0.6 33
09:35 1024 30.24 853 25.19 10.1 50.2 52 0.6 33.2
09:40 1024 30.24 854 25.22 10.7 51.2 51 1 33.7
09:45 1024 30.24 854 25.22 11 51.9 49 0.8 33.5
09:50 1024 30.24 854 25.22 11.3 52.3 49 1.1 34
09:55 1024 30.24 854 25.22 11.5 52.8 48 0.9 33.7
10:00 1024 30.24 853 25.19 12 53.6 46 0.9 33.6
10:05 1024 30.24 854 25.22 12.8 55.1 44 1 33.8
10:10 1024 30.24 854 25.22 13.3 56 43 1.1 33.9
10:15 1024 30.24 853 25.19 14 57.1 42 1.2 34.2
10:20 1024 30.24 853 25.19 14 57.1 42 1.5 34.7
10:25 1024 30.24 853 25.19 14 57.3 42 1.4 34.6
10:30 1024 30.24 853 25.19 14.1 57.3 41 1.1 34
10:35 1024 30.24 853 25.19 14.3 57.7 40 1 33.9
10:40 1024 30.24 853 25.19 14 57.3 42 1.4 34.5
10:45 1024 30.24 853 25.19 14 57.2 42 1.3 34.3
10:50 1024 30.24 853 25.19 13.8 56.8 42 1.2 34.1
10:55 1024 30.24 853 25.19 14 57.3 41 1.1 33.9
11:00 1024 30.24 853 25.19 14.4 57.9 41 1.3 34.3
11:05 1024 30.24 853 25.19 14.5 58 40 1 33.7
11:10 1024 30.24 853 25.19 14.4 58 40 1.2 34.2
11:15 1024 30.24 853 25.19 14.4 57.9 40 1.1 33.9
11:20 1024 30.24 853 25.19 14.3 57.8 40 1.1 34
11:25 1024 30.24 853 25.19 14.7 58.5 39 0.9 33.7
11:30 1024 30.24 853 25.19 14.7 58.4 40 1.4 34.4
11:35 1024 30.24 853 25.19 15 59 38 0.9 33.6
11:40 1024 30.24 853 25.19 14.6 58.3 39 0.8 33.5
11:45 1024 30.24 853 25.19 15.3 59.5 38 1 33.8
11:50 1024 30.24 853 25.19 15.3 59.5 38 1.2 34.2
11:55 1024 30.24 853 25.19 15.5 59.9 37 0.9 33.7
12:00 1024 30.24 853 25.19 16.6 61.9 33 0.5 33
12:05 1023 30.21 853 25.19 17 62.5 33 0.5 33
12:10 1023 30.21 853 25.19 17.6 63.6 31 0.4 32.7
12:15 1023 30.21 853 25.19 17.8 64 31 0.3 32.6
12:20 1023 30.21 852 25.16 17.9 64.2 30 0.3 32.6
12:25 1023 30.21 852 25.16 17.6 63.8 31 0.4 32.8
12:30 1023 30.21 852 25.16 17.5 63.5 31 0.6 33
12:35 1023 30.21 852 25.16 17.8 64.1 30 0.3 32.5
12:40 1023 30.21 852 25.16 18.8 65.8 29 0.6 33.1
12:45 1023 30.21 852 25.16 18.1 64.7 30 0.6 33.1
12:50 1023 30.21 852 25.16 17.7 63.9 31 0.5 32.8
12:55 1023 30.21 852 25.16 17.5 63.5 31 0.5 32.9
13:00 1022 30.18 852 25.16 17.5 63.5 31 0.5 33
13:05 1022 30.18 852 25.16 17.2 63 33 0.8 33.4
13:10 1022 30.18 851 25.13 17.2 62.9 32 0.6 33.1
13:15 1022 30.18 851 25.13 17.3 63.2 32 0.4 32.8
13:20 1022 30.18 851 25.13 17.1 62.9 31 0.2 32.4
13:25 1022 30.18 851 25.13 17.1 62.8 32 0.3 32.6
13:30 1022 30.18 851 25.13 17 62.7 32 0.3 32.6
13:35 1022 30.18 851 25.13 17 62.6 32 0.4 32.7
13:40 1022 30.18 851 25.13 17.4 63.3 31 0.4 32.7
13:45 1022 30.18 851 25.13 17.5 63.5 32 0.8 33.4
13:50 1022 30.18 851 25.13 17.3 63.1 32 0.5 32.8
13:55 1022 30.18 851 25.13 17.3 63.2 32 0.8 33.4
14:00 1022 30.18 851 25.13 17.6 63.6 32 0.8 33.5
14:05 1022 30.18 851 25.13 17.7 63.8 32 0.8 33.4
14:10 1021 30.15 851 25.13 17.7 63.9 31 0.6 33.2
14:15 1021 30.15 851 25.13 17.8 64 32 0.9 33.7
14:20 1021 30.15 851 25.13 17.7 63.8 32 1.1 33.9
14:25 1021 30.15 850 25.1 17.7 63.9 32 0.8 33.4
14:30 1021 30.15 850 25.1 18.2 64.7 32 1.2 34.1
14:35 1021 30.15 850 25.1 17.9 64.3 32 1.2 34.2
14:40 1021 30.15 850 25.1 18 64.3 32 1.1 34
14:45 1021 30.15 850 25.1 17.9 64.2 33 1.5 34.8
14:50 1021 30.15 850 25.1 18.3 65 31 1 33.9
14:55 1021 30.15 850 25.1 18.7 65.6 31 1.2 34.1
15:00 1021 30.15 850 25.1 18.2 64.8 32 1.3 34.4
15:05 1021 30.15 850 25.1 18.7 65.7 30 0.9 33.6
15:10 1021 30.15 850 25.1 18.7 65.6 32 1.6 35
15:15 1021 30.15 850 25.1 18.5 65.2 31 1.2 34.2
15:20 1021 30.15 850 25.1 19.2 66.6 30 1.4 34.5
15:25 1021 30.15 850 25.1 18.6 65.6 32 1.9 35.4
15:30 1021 30.15 850 25.1 18.3 64.9 32 1.6 34.8
15:35 1021 30.15 850 25.1 18.4 65.1 32 1.6 34.9
15:40 1021 30.15 850 25.1 17.8 64 34 1.8 35.2
15:45 1021 30.15 850 25.1 17.6 63.7 34 1.7 35
15:50 1020 30.12 850 25.1 17.3 63.2 35 2 35.6
15:55 1020 30.12 850 25.1 17.3 63.2 34 1.5 34.7
16:00 1020 30.12 850 25.1 17.7 63.9 34 1.7 35
16:05 1020 30.12 850 25.1 17.8 64 35 2.1 35.8
16:10 1020 30.12 849 25.07 17.5 63.5 36 2.3 36.1
16:15 1020 30.12 849 25.07 17.5 63.5 35 2 35.6
16:20 1020 30.12 849 25.07 17.6 63.6 34 1.7 35
16:25 1020 30.12 849 25.07 17.3 63.1 36 2.1 35.8
16:30 1020 30.12 849 25.07 17.8 64.1 35 2.2 35.9
16:35 1020 30.12 849 25.07 18.1 64.5 35 2.5 36.4
16:40 1020 30.12 849 25.07 17.4 63.3 36 2.4 36.2
16:45 1020 30.12 849 25.07 17.2 62.9 36 2.2 35.9
16:50 1020 30.12 849 25.07 16.9 62.4 37 2.2 36
16:55 1020 30.12 849 25.07 16.7 62.1 38 2.5 36.4
17:00 1020 30.12 849 25.07 16.6 61.9 39 2.7 36.9
17:05 1020 30.12 849 25.07 16.4 61.5 40 2.8 37.1
17:10 1020 30.12 849 25.07 16.2 61.2 40 2.8 37.1
17:15 1020 30.12 849 25.07 16.2 61.1 41 2.9 37.3
17:20 1020 30.12 849 25.07 16 60.8 40 2.6 36.7
17:25 1020 30.12 849 25.07 16.1 60.9 40 2.7 36.8
17:30 1020 30.12 849 25.07 16.3 61.3 39 2.3 36.1
17:35 1020 30.12 849 25.07 16.4 61.6 39 2.4 36.4
17:40 1020 30.12 849 25.07 16.2 61.1 40 2.7 36.9
17:45 1020 30.12 849 25.07 16 60.8 41 2.7 36.9
17:50 1020 30.12 849 25.07 15.8 60.5 41 2.7 36.9
17:55 1020 30.12 849 25.07 15.7 60.2 41 2.7 36.8
18:00 1020 30.12 849 25.07 15.7 60.2 41 2.5 36.6
18:05 1020 30.12 849 25.07 15.7 60.2 41 2.7 36.8
18:10 1019 30.09 849 25.07 15.6 60.1 41 2.6 36.6
18:15 1019 30.09 849 25.07 15.6 60 42 2.6 36.8
18:20 1019 30.09 849 25.07 15.4 59.6 42 2.8 37
18:25 1019 30.09 849 25.07 15 58.9 44 2.8 37
18:30 1019 30.09 849 25.07 14.7 58.5 43 2.5 36.5
18:35 1019 30.09 849 25.07 14.9 58.8 42 2.4 36.2
18:40 1019 30.09 849 25.07 14.9 58.9 43 2.4 36.4
18:45 1019 30.09 849 25.07 14.8 58.7 43 2.4 36.3
18:50 1019 30.09 849 25.07 14.8 58.6 44 2.6 36.7
18:55 1019 30.09 849 25.07 14.6 58.2 44 2.5 36.4
19:00 1019 30.09 849 25.07 14.5 58 44 2.4 36.3
19:05 1019 30.09 849 25.07 14.3 57.7 44 2.4 36.3
19:10 1019 30.09 849 25.07 14.3 57.8 44 2.4 36.4
19:15 1019 30.09 849 25.07 14.4 57.9 44 2.5 36.6
19:20 1019 30.09 849 25.07 14.3 57.7 44 2.4 36.3
19:25 1019 30.09 848 25.04 14.4 58 44 2.4 36.3
19:30 1019 30.09 848 25.04 14.3 57.8 45 2.7 36.9
19:35 1019 30.09 848 25.04 14 57.2 46 2.6 36.7
19:40 1019 30.09 848 25.04 13.8 56.8 46 2.6 36.6
19:45 1019 30.09 848 25.04 14.1 57.4 45 2.4 36.3
19:50 1019 30.09 848 25.04 13.9 57 47 2.9 37.2
19:55 1019 30.09 848 25.04 13 55.3 50 3 37.4
20:00 1019 30.09 848 25.04 12.4 54.3 51 2.5 36.5
20:05 1019 30.09 848 25.04 12.4 54.2 50 2.3 36.1
20:10 1019 30.09 848 25.04 12.4 54.2 50 2.3 36.1
20:15 1019 30.09 848 25.04 12.4 54.4 49 2.1 35.7
20:20 1019 30.09 848 25.04 12.5 54.5 50 2.3 36.2
20:25 1019 30.09 848 25.04 12.4 54.4 49 2.1 35.8
20:30 1019 30.09 848 25.04 12.4 54.4 49 2.2 35.9
20:35 1019 30.09 848 25.04 12.4 54.3 49 2.1 35.8
20:40 1019 30.09 848 25.04 12.5 54.4 49 2.1 35.8
20:45 1019 30.09 848 25.04 12.6 54.6 49 2.2 36
20:50 1019 30.09 848 25.04 12.7 54.9 49 2.2 36
20:55 1019 30.09 848 25.04 12.7 54.8 49 2.3 36.2
21:00 1019 30.09 848 25.04 12.6 54.6 49 2.2 35.9
21:05 1018 30.06 848 25.04 12.6 54.6 50 2.4 36.4
21:10 1018 30.06 848 25.04 12.2 54 51 2.5 36.5
21:15 1018 30.06 847 25.01 12 53.6 52 2.5 36.5
21:20 1018 30.06 847 25.01 12 53.6 52 2.6 36.6
21:25 1018 30.06 847 25.01 12 53.6 53 2.6 36.8
21:30 1018 30.06 847 25.01 11.9 53.3 53 2.7 36.8
21:35 1018 30.06 847 25.01 11.8 53.2 53 2.7 36.8
21:40 1018 30.06 847 25.01 11.7 53 54 2.6 36.7
21:45 1018 30.06 847 25.01 11.8 53.2 53 2.7 36.9
21:50 1018 30.06 847 25.01 11.7 53.1 54 2.8 37
21:55 1018 30.06 847 25.01 11.8 53.2 53 2.6 36.7
22:00 1018 30.06 847 25.01 11.8 53.3 53 2.6 36.6
22:05 1018 30.06 847 25.01 11.9 53.3 53 2.7 36.8
22:10 1018 30.06 847 25.01 11.8 53.3 53 2.7 36.9
22:15 1018 30.06 847 25.01 11.8 53.3 54 2.9 37.1
22:20 1017 30.03 847 25.01 11.8 53.3 54 2.9 37.2
22:25 1017 30.03 847 25.01 12 53.5 54 2.9 37.2
22:30 1017 30.03 846 24.98 11.9 53.5 55 3.1 37.6
22:35 1017 30.03 846 24.98 11.7 53.1 55 3.1 37.6
22:40 1017 30.03 846 24.98 11.7 53 56 3.1 37.7
22:45 1017 30.03 846 24.98 11.8 53.3 55 3.1 37.5
22:50 1017 30.03 846 24.98 11.8 53.2 55 3.1 37.6
22:55 1017 30.03 846 24.98 12 53.5 54 3 37.5
23:00 1017 30.03 846 24.98 12 53.5 54 3 37.4
23:05 1017 30.03 846 24.98 12 53.5 54 2.9 37.3
23:10 1017 30.03 846 24.98 12 53.5 54 2.9 37.3
23:15 1017 30.03 846 24.98 11.9 53.4 54 3 37.5
23:20 1017 30.03 846 24.98 11.9 53.3 54 2.9 37.2
23:25 1017 30.03 846 24.98 11.8 53.3 54 3 37.4
23:30 1016 30 846 24.98 11.6 52.9 54 2.8 37
23:35 1016 30 846 24.98 11.4 52.6 56 3 37.5
23:40 1016 30 846 24.98 11 51.7 58 3 37.4
23:45 1016 30 845 24.95 10.8 51.5 57 2.7 36.9
23:50 1016 30 845 24.95 11.1 52 55 2.6 36.6
23:55 1016 30 845 24.95 11.1 51.9 57 3 37.4
24:00 1016 30 845 24.95 10.9 51.6 56 2.6 36.6